sensor_id;sensor_type;location;lat;lon;timestamp;pressure;altitude;pressure_sealevel;temperature;humidity
53546;BME280;39432;51.902;10.844;2023-01-23T00:01:49;101314.88;;;1.10;100.00
53546;BME280;39432;51.902;10.844;2023-01-23T00:04:19;101318.91;;;1.94;100.00
53546;BME280;39432;51.902;10.844;2023-01-23T00:06:48;101323.88;;;1.80;100.00
53546;BME280;39432;51.902;10.844;2023-01-23T00:09:18;101323.38;;;1.77;100.00
53546;BME280;39432;51.902;10.844;2023-01-23T00:11:48;101324.47;;;1.66;100.00
53546;BME280;39432;51.902;10.844;2023-01-23T00:14:20;101317.00;;;1.60;100.00
53546;BME280;39432;51.902;10.844;2023-01-23T00:16:49;101328.22;;;1.73;100.00
53546;BME280;39432;51.902;10.844;2023-01-23T00:19:19;101327.41;;;1.01;100.00
53546;BME280;39432;51.902;10.844;2023-01-23T00:21:49;101328.72;;;1.51;100.00
53546;BME280;39432;51.902;10.844;2023-01-23T00:24:18;101334.13;;;1.51;100.00
53546;BME280;39432;51.902;10.844;2023-01-23T00:26:48;101332.16;;;2.05;100.00
53546;BME280;39432;51.902;10.844;2023-01-23T00:29:20;101327.50;;;1.27;100.00
53546;BME280;39432;51.902;10.844;2023-01-23T00:31:49;101318.59;;;0.82;100.00
53546;BME280;39432;51.902;10.844;2023-01-23T00:34:21;101327.84;;;0.79;100.00
53546;BME280;39432;51.902;10.844;2023-01-23T00:36:50;101327.53;;;0.82;100.00
53546;BME280;39432;51.902;10.844;2023-01-23T00:39:22;101329.44;;;1.17;100.00
53546;BME280;39432;51.902;10.844;2023-01-23T00:41:52;101327.72;;;1.52;100.00
53546;BME280;39432;51.902;10.844;2023-01-23T00:44:25;101334.66;;;1.37;100.00
53546;BME280;39432;51.902;10.844;2023-01-23T00:46:56;101340.34;;;1.51;100.00
53546;BME280;39432;51.902;10.844;2023-01-23T00:49:27;101347.50;;;1.43;100.00
53546;BME280;39432;51.902;10.844;2023-01-23T00:51:57;101350.84;;;1.19;100.00
53546;BME280;39432;51.902;10.844;2023-01-23T00:54:27;101356.25;;;1.54;100.00
53546;BME280;39432;51.902;10.844;2023-01-23T00:56:57;101355.69;;;1.15;100.00
53546;BME280;39432;51.902;10.844;2023-01-23T00:59:29;101363.75;;;1.15;100.00
53546;BME280;39432;51.902;10.844;2023-01-23T01:01:58;101366.84;;;1.02;100.00
53546;BME280;39432;51.902;10.844;2023-01-23T01:04:28;101372.69;;;0.70;100.00
53546;BME280;39432;51.902;10.844;2023-01-23T01:07:01;101368.53;;;1.03;100.00
53546;BME280;39432;51.902;10.844;2023-01-23T01:09:31;101384.34;;;1.52;100.00
53546;BME280;39432;51.902;10.844;2023-01-23T01:12:00;101388.72;;;0.99;100.00
53546;BME280;39432;51.902;10.844;2023-01-23T01:14:33;101390.25;;;0.74;100.00
53546;BME280;39432;51.902;10.844;2023-01-23T01:17:02;101387.75;;;0.91;100.00
53546;BME280;39432;51.902;10.844;2023-01-23T01:19:32;101391.66;;;0.78;100.00
53546;BME280;39432;51.902;10.844;2023-01-23T01:22:02;101385.66;;;0.85;100.00
53546;BME280;39432;51.902;10.844;2023-01-23T01:24:31;101392.53;;;0.69;100.00
53546;BME280;39432;51.902;10.844;2023-01-23T01:27:01;101392.66;;;1.05;100.00
53546;BME280;39432;51.902;10.844;2023-01-23T01:29:34;101398.38;;;0.92;100.00
53546;BME280;39432;51.902;10.844;2023-01-23T01:32:03;101393.13;;;1.18;100.00
53546;BME280;39432;51.902;10.844;2023-01-23T01:34:33;101400.63;;;0.97;100.00
53546;BME280;39432;51.902;10.844;2023-01-23T01:37:03;101403.56;;;0.76;100.00
53546;BME280;39432;51.902;10.844;2023-01-23T01:39:32;101407.75;;;1.16;100.00
53546;BME280;39432;51.902;10.844;2023-01-23T01:42:02;101408.81;;;0.77;100.00
53546;BME280;39432;51.902;10.844;2023-01-23T01:44:52;101418.47;;;0.70;100.00
53546;BME280;39432;51.902;10.844;2023-01-23T01:47:22;101414.75;;;1.09;100.00
53546;BME280;39432;51.902;10.844;2023-01-23T01:49:54;101411.81;;;1.20;100.00
53546;BME280;39432;51.902;10.844;2023-01-23T01:52:25;101410.72;;;0.67;100.00
53546;BME280;39432;51.902;10.844;2023-01-23T01:54:59;101423.88;;;0.70;100.00
53546;BME280;39432;51.902;10.844;2023-01-23T01:57:33;101425.53;;;1.09;100.00
53546;BME280;39432;51.902;10.844;2023-01-23T02:00:11;101428.72;;;0.94;100.00
53546;BME280;39432;51.902;10.844;2023-01-23T02:02:46;101429.78;;;1.11;100.00
53546;BME280;39432;51.902;10.844;2023-01-23T02:05:19;101435.84;;;1.13;100.00
53546;BME280;39432;51.902;10.844;2023-01-23T02:07:55;101434.25;;;0.93;100.00
53546;BME280;39432;51.902;10.844;2023-01-23T02:10:25;101438.34;;;0.97;100.00
53546;BME280;39432;51.902;10.844;2023-01-23T02:12:54;101432.06;;;1.06;100.00
53546;BME280;39432;51.902;10.844;2023-01-23T02:15:27;101444.44;;;1.26;100.00
53546;BME280;39432;51.902;10.844;2023-01-23T02:17:56;101431.28;;;0.96;100.00
53546;BME280;39432;51.902;10.844;2023-01-23T02:20:27;101423.78;;;1.17;100.00
53546;BME280;39432;51.902;10.844;2023-01-23T02:23:03;101427.56;;;0.97;100.00
53546;BME280;39432;51.902;10.844;2023-01-23T02:28:17;101433.19;;;1.03;100.00
53546;BME280;39432;51.902;10.844;2023-01-23T02:30:47;101440.81;;;1.36;100.00
53546;BME280;39432;51.902;10.844;2023-01-23T02:33:45;101438.34;;;0.97;100.00
53546;BME280;39432;51.902;10.844;2023-01-23T02:36:17;101441.94;;;1.15;100.00
53546;BME280;39432;51.902;10.844;2023-01-23T02:39:04;101440.97;;;0.89;100.00
53546;BME280;39432;51.902;10.844;2023-01-23T02:41:37;101444.63;;;0.88;100.00
53546;BME280;39432;51.902;10.844;2023-01-23T02:44:12;101449.09;;;1.07;100.00
53546;BME280;39432;51.902;10.844;2023-01-23T02:46:50;101451.88;;;1.15;100.00
53546;BME280;39432;51.902;10.844;2023-01-23T02:49:20;101466.59;;;1.20;100.00
53546;BME280;39432;51.902;10.844;2023-01-23T02:51:51;101468.59;;;1.18;100.00
53546;BME280;39432;51.902;10.844;2023-01-23T02:54:22;101465.41;;;1.05;100.00
53546;BME280;39432;51.902;10.844;2023-01-23T02:56:52;101470.00;;;1.22;100.00
53546;BME280;39432;51.902;10.844;2023-01-23T02:59:25;101467.38;;;0.75;100.00
53546;BME280;39432;51.902;10.844;2023-01-23T03:02:08;101467.16;;;0.96;100.00
53546;BME280;39432;51.902;10.844;2023-01-23T03:04:38;101476.59;;;1.10;100.00
53546;BME280;39432;51.902;10.844;2023-01-23T03:07:07;101485.13;;;1.33;100.00
53546;BME280;39432;51.902;10.844;2023-01-23T03:09:37;101491.22;;;1.53;100.00
53546;BME280;39432;51.902;10.844;2023-01-23T03:12:08;101491.03;;;1.37;100.00
53546;BME280;39432;51.902;10.844;2023-01-23T03:14:40;101488.34;;;1.37;100.00
53546;BME280;39432;51.902;10.844;2023-01-23T03:17:10;101498.66;;;1.23;100.00
53546;BME280;39432;51.902;10.844;2023-01-23T03:19:41;101493.47;;;1.12;100.00
53546;BME280;39432;51.902;10.844;2023-01-23T03:22:10;101494.25;;;1.22;100.00
53546;BME280;39432;51.902;10.844;2023-01-23T03:24:40;101494.25;;;1.22;100.00
53546;BME280;39432;51.902;10.844;2023-01-23T03:27:10;101497.84;;;1.13;100.00
53546;BME280;39432;51.902;10.844;2023-01-23T03:29:46;101502.22;;;1.42;100.00
53546;BME280;39432;51.902;10.844;2023-01-23T03:32:29;101506.22;;;1.65;100.00
53546;BME280;39432;51.902;10.844;2023-01-23T03:34:58;101498.44;;;1.07;100.00
53546;BME280;39432;51.902;10.844;2023-01-23T03:37:28;101503.28;;;1.31;100.00
53546;BME280;39432;51.902;10.844;2023-01-23T03:39:58;101508.19;;;1.45;100.00
53546;BME280;39432;51.902;10.844;2023-01-23T03:42:41;101503.06;;;0.87;100.00
53546;BME280;39432;51.902;10.844;2023-01-23T03:45:16;101503.44;;;1.02;100.00
53546;BME280;39432;51.902;10.844;2023-01-23T03:47:46;101511.00;;;0.89;100.00
53546;BME280;39432;51.902;10.844;2023-01-23T03:50:15;101507.59;;;0.87;100.00
53546;BME280;39432;51.902;10.844;2023-01-23T03:52:48;101507.53;;;1.06;100.00
53546;BME280;39432;51.902;10.844;2023-01-23T03:55:18;101508.41;;;0.97;100.00
53546;BME280;39432;51.902;10.844;2023-01-23T03:57:48;101508.06;;;1.10;100.00
53546;BME280;39432;51.902;10.844;2023-01-23T04:00:21;101503.56;;;1.10;100.00
53546;BME280;39432;51.902;10.844;2023-01-23T04:03:00;101511.94;;;1.35;100.00
53546;BME280;39432;51.902;10.844;2023-01-23T04:05:30;101511.13;;;1.24;100.00
53546;BME280;39432;51.902;10.844;2023-01-23T04:08:01;101510.31;;;1.14;100.00
53546;BME280;39432;51.902;10.844;2023-01-23T04:10:30;101507.81;;;1.03;100.00
53546;BME280;39432;51.902;10.844;2023-01-23T04:13:04;101514.91;;;1.04;100.00
53546;BME280;39432;51.902;10.844;2023-01-23T04:15:36;101511.13;;;1.24;100.00
53546;BME280;39432;51.902;10.844;2023-01-23T04:18:06;101502.31;;;1.32;100.00
53546;BME280;39432;51.902;10.844;2023-01-23T04:20:37;101501.09;;;0.89;100.00
53546;BME280;39432;51.902;10.844;2023-01-23T04:23:06;101501.09;;;0.79;100.00
53546;BME280;39432;51.902;10.844;2023-01-23T04:25:36;101503.66;;;0.81;100.00
53546;BME280;39432;51.902;10.844;2023-01-23T04:28:10;101503.66;;;0.71;100.00
53546;BME280;39432;51.902;10.844;2023-01-23T04:30:43;101521.69;;;1.08;100.00
53546;BME280;39432;51.902;10.844;2023-01-23T04:33:20;101519.38;;;0.86;100.00
53546;BME280;39432;51.902;10.844;2023-01-23T04:35:52;101526.94;;;0.72;100.00
53546;BME280;39432;51.902;10.844;2023-01-23T04:38:26;101529.16;;;0.87;100.00
53546;BME280;39432;51.902;10.844;2023-01-23T04:40:59;101530.34;;;0.74;100.00
53546;BME280;39432;51.902;10.844;2023-01-23T04:43:34;101527.78;;;0.83;100.00
53546;BME280;39432;51.902;10.844;2023-01-23T04:46:10;101535.69;;;0.84;100.00
53546;BME280;39432;51.902;10.844;2023-01-23T04:48:59;101541.69;;;0.68;100.00
53546;BME280;39432;51.902;10.844;2023-01-23T04:51:30;101541.59;;;0.97;100.00
53546;BME280;39432;51.902;10.844;2023-01-23T04:54:00;101547.47;;;1.20;100.00
53546;BME280;39432;51.902;10.844;2023-01-23T04:56:31;101547.94;;;1.43;100.00
53546;BME280;39432;51.902;10.844;2023-01-23T04:59:02;101538.41;;;0.74;100.00
53546;BME280;39432;51.902;10.844;2023-01-23T05:01:35;101543.34;;;0.89;100.00
53546;BME280;39432;51.902;10.844;2023-01-23T05:04:05;101534.00;;;0.83;100.00
53546;BME280;39432;51.902;10.844;2023-01-23T05:06:35;101536.78;;;1.01;100.00
53546;BME280;39432;51.902;10.844;2023-01-23T05:09:05;101541.91;;;0.94;100.00
53546;BME280;39432;51.902;10.844;2023-01-23T05:11:38;101545.88;;;1.27;100.00
53546;BME280;39432;51.902;10.844;2023-01-23T05:14:10;101538.38;;;0.94;100.00
53546;BME280;39432;51.902;10.844;2023-01-23T05:16:43;101536.41;;;1.23;100.00
53546;BME280;39432;51.902;10.844;2023-01-23T05:19:17;101526.84;;;1.01;100.00
53546;BME280;39432;51.902;10.844;2023-01-23T05:21:47;101532.25;;;0.92;100.00
53546;BME280;39432;51.902;10.844;2023-01-23T05:24:19;101541.84;;;1.04;100.00
53546;BME280;39432;51.902;10.844;2023-01-23T05:26:49;101533.59;;;0.78;100.00
53546;BME280;39432;51.902;10.844;2023-01-23T05:29:19;101529.75;;;0.71;100.00
53546;BME280;39432;51.902;10.844;2023-01-23T05:32:01;101524.06;;;0.84;100.00
53546;BME280;39432;51.902;10.844;2023-01-23T05:34:36;101535.69;;;0.94;100.00
53546;BME280;39432;51.902;10.844;2023-01-23T05:37:15;101536.00;;;0.71;100.00
53546;BME280;39432;51.902;10.844;2023-01-23T05:39:50;101536.03;;;0.62;100.00
53546;BME280;39432;51.902;10.844;2023-01-23T05:42:20;101541.38;;;0.71;100.00
53546;BME280;39432;51.902;10.844;2023-01-23T05:45:01;101551.13;;;0.92;100.00
53546;BME280;39432;51.902;10.844;2023-01-23T05:47:40;101545.72;;;0.92;100.00
53546;BME280;39432;51.902;10.844;2023-01-23T05:50:14;101555.03;;;1.07;100.00
53546;BME280;39432;51.902;10.844;2023-01-23T05:52:45;101541.38;;;0.81;100.00
53546;BME280;39432;51.902;10.844;2023-01-23T05:55:15;101558.16;;;1.12;100.00
53546;BME280;39432;51.902;10.844;2023-01-23T05:57:46;101555.66;;;1.28;100.00
53546;BME280;39432;51.902;10.844;2023-01-23T06:00:31;101560.22;;;1.28;100.00
53546;BME280;39432;51.902;10.844;2023-01-23T06:03:32;101566.25;;;1.12;100.00
53546;BME280;39432;51.902;10.844;2023-01-23T06:06:20;101567.19;;;1.21;100.00
53546;BME280;39432;51.902;10.844;2023-01-23T06:08:49;101580.44;;;1.42;100.00
53546;BME280;39432;51.902;10.844;2023-01-23T06:11:19;101582.03;;;1.35;100.00
53546;BME280;39432;51.902;10.844;2023-01-23T06:13:49;101586.38;;;1.08;100.00
53546;BME280;39432;51.902;10.844;2023-01-23T06:16:18;101593.47;;;1.09;100.00
53546;BME280;39432;51.902;10.844;2023-01-23T06:18:50;101594.81;;;0.76;100.00
53546;BME280;39432;51.902;10.844;2023-01-23T06:21:20;101584.00;;;1.05;100.00
53546;BME280;39432;51.902;10.844;2023-01-23T06:23:50;101591.72;;;0.81;100.00
53546;BME280;39432;51.902;10.844;2023-01-23T06:26:20;101592.97;;;0.86;100.00
53546;BME280;39432;51.902;10.844;2023-01-23T06:28:49;101588.06;;;0.62;100.00
53546;BME280;39432;51.902;10.844;2023-01-23T06:31:19;101603.22;;;0.73;100.00
53546;BME280;39432;51.902;10.844;2023-01-23T06:33:55;101602.91;;;0.86;100.00
53546;BME280;39432;51.902;10.844;2023-01-23T06:36:30;101607.31;;;0.77;100.00
53546;BME280;39432;51.902;10.844;2023-01-23T06:39:00;101611.84;;;0.76;100.00
53546;BME280;39432;51.902;10.844;2023-01-23T06:41:36;101611.97;;;0.85;100.00
53546;BME280;39432;51.902;10.844;2023-01-23T06:44:07;101618.22;;;0.85;100.00
53546;BME280;39432;51.902;10.844;2023-01-23T06:46:37;101624.47;;;0.86;100.00
53546;BME280;39432;51.902;10.844;2023-01-23T06:49:09;101623.00;;;1.01;100.00
53546;BME280;39432;51.902;10.844;2023-01-23T06:51:39;101633.44;;;1.23;100.00
53546;BME280;39432;51.902;10.844;2023-01-23T06:54:10;101632.38;;;0.97;100.00
53546;BME280;39432;51.902;10.844;2023-01-23T06:56:40;101634.22;;;0.87;100.00
53546;BME280;39432;51.902;10.844;2023-01-23T06:59:11;101640.84;;;1.21;100.00
53546;BME280;39432;51.902;10.844;2023-01-23T07:01:41;101647.94;;;1.22;100.00
53546;BME280;39432;51.902;10.844;2023-01-23T07:04:13;101646.41;;;1.47;100.00
53546;BME280;39432;51.902;10.844;2023-01-23T07:06:46;101644.81;;;1.17;100.00
53546;BME280;39432;51.902;10.844;2023-01-23T07:09:17;101649.69;;;0.85;100.00
53546;BME280;39432;51.902;10.844;2023-01-23T07:11:59;101646.59;;;0.89;100.00
53546;BME280;39432;51.902;10.844;2023-01-23T07:14:30;101646.88;;;0.76;100.00
53546;BME280;39432;51.902;10.844;2023-01-23T07:16:59;101650.25;;;0.98;100.00
53546;BME280;39432;51.902;10.844;2023-01-23T07:19:33;101655.28;;;1.20;100.00
53546;BME280;39432;51.902;10.844;2023-01-23T07:22:06;101653.97;;;0.77;100.00
53546;BME280;39432;51.902;10.844;2023-01-23T07:24:35;101658.13;;;1.28;100.00
53546;BME280;39432;51.902;10.844;2023-01-23T07:27:05;101664.72;;;1.07;100.00
53546;BME280;39432;51.902;10.844;2023-01-23T07:29:35;101672.31;;;1.30;100.00
53546;BME280;39432;51.902;10.844;2023-01-23T07:32:05;101670.06;;;1.63;100.00
53546;BME280;39432;51.902;10.844;2023-01-23T07:34:42;101677.41;;;1.43;100.00
53546;BME280;39432;51.902;10.844;2023-01-23T07:37:11;101684.59;;;1.90;100.00
53546;BME280;39432;51.902;10.844;2023-01-23T07:39:41;101686.66;;;1.68;100.00
53546;BME280;39432;51.902;10.844;2023-01-23T07:42:11;101686.78;;;1.76;100.00
53546;BME280;39432;51.902;10.844;2023-01-23T07:44:40;101676.84;;;1.40;100.00
53546;BME280;39432;51.902;10.844;2023-01-23T07:47:10;101668.75;;;1.30;100.00
53546;BME280;39432;51.902;10.844;2023-01-23T07:49:42;101671.47;;;1.20;100.00
53546;BME280;39432;51.902;10.844;2023-01-23T07:52:12;101676.00;;;1.76;100.00
53546;BME280;39432;51.902;10.844;2023-01-23T07:54:41;101666.97;;;1.11;100.00
53546;BME280;39432;51.902;10.844;2023-01-23T07:57:11;101681.88;;;1.62;100.00
53546;BME280;39432;51.902;10.844;2023-01-23T07:59:40;101675.47;;;1.16;100.00
53546;BME280;39432;51.902;10.844;2023-01-23T08:02:10;101683.06;;;1.40;100.00
53546;BME280;39432;51.902;10.844;2023-01-23T08:04:42;101671.53;;;1.11;100.00
53546;BME280;39432;51.902;10.844;2023-01-23T08:07:12;101682.50;;;1.37;100.00
53546;BME280;39432;51.902;10.844;2023-01-23T08:09:41;101683.38;;;1.74;100.00
53546;BME280;39432;51.902;10.844;2023-01-23T08:12:11;101678.03;;;0.98;100.00
53546;BME280;39432;51.902;10.844;2023-01-23T08:14:41;101673.06;;;1.03;100.00
53546;BME280;39432;51.902;10.844;2023-01-23T08:17:10;101668.09;;;1.09;100.00
53546;BME280;39432;51.902;10.844;2023-01-23T08:19:42;101678.28;;;1.24;100.00
53546;BME280;39432;51.902;10.844;2023-01-23T08:22:12;101679.13;;;1.25;100.00
53546;BME280;39432;51.902;10.844;2023-01-23T08:24:41;101685.94;;;1.19;100.00
53546;BME280;39432;51.902;10.844;2023-01-23T08:27:11;101688.81;;;1.18;100.00
53546;BME280;39432;51.902;10.844;2023-01-23T08:29:41;101696.28;;;1.43;100.00
53546;BME280;39432;51.902;10.844;2023-01-23T08:32:11;101691.59;;;1.26;100.00
53546;BME280;39432;51.902;10.844;2023-01-23T08:34:43;101703.53;;;1.33;100.00
53546;BME280;39432;51.902;10.844;2023-01-23T08:37:12;101709.84;;;1.04;100.00
53546;BME280;39432;51.902;10.844;2023-01-23T08:39:42;101712.09;;;0.70;100.00
53546;BME280;39432;51.902;10.844;2023-01-23T08:42:12;101712.94;;;1.00;100.00
53546;BME280;39432;51.902;10.844;2023-01-23T08:44:41;101722.00;;;1.09;100.00
53546;BME280;39432;51.902;10.844;2023-01-23T08:47:16;101724.28;;;1.03;100.00
53546;BME280;39432;51.902;10.844;2023-01-23T08:49:48;101719.47;;;1.07;100.00
53546;BME280;39432;51.902;10.844;2023-01-23T08:52:18;101729.41;;;0.77;100.00
53546;BME280;39432;51.902;10.844;2023-01-23T08:54:47;101738.75;;;0.93;100.00
53546;BME280;39432;51.902;10.844;2023-01-23T08:57:17;101739.31;;;1.06;100.00
53546;BME280;39432;51.902;10.844;2023-01-23T08:59:47;101733.63;;;1.19;100.00
53546;BME280;39432;51.902;10.844;2023-01-23T09:02:16;101750.34;;;1.42;100.00
53546;BME280;39432;51.902;10.844;2023-01-23T09:04:50;101751.19;;;1.52;100.00
53546;BME280;39432;51.902;10.844;2023-01-23T09:07:19;101760.69;;;1.56;100.00
53546;BME280;39432;51.902;10.844;2023-01-23T09:09:49;101762.00;;;1.13;100.00
53546;BME280;39432;51.902;10.844;2023-01-23T09:12:20;101763.41;;;1.37;100.00
53546;BME280;39432;51.902;10.844;2023-01-23T09:14:50;101768.78;;;1.37;100.00
53546;BME280;39432;51.902;10.844;2023-01-23T09:17:20;101758.59;;;1.21;100.00
53546;BME280;39432;51.902;10.844;2023-01-23T09:19:52;101763.81;;;1.42;100.00
53546;BME280;39432;51.902;10.844;2023-01-23T09:22:23;101765.41;;;1.35;100.00
53546;BME280;39432;51.902;10.844;2023-01-23T09:24:53;101755.66;;;0.95;100.00
53546;BME280;39432;51.902;10.844;2023-01-23T09:27:23;101755.63;;;1.24;100.00
53546;BME280;39432;51.902;10.844;2023-01-23T09:29:52;101756.00;;;1.48;100.00
53546;BME280;39432;51.902;10.844;2023-01-23T09:32:22;101774.91;;;1.95;100.00
53546;BME280;39432;51.902;10.844;2023-01-23T09:34:54;101770.78;;;1.54;100.00
53546;BME280;39432;51.902;10.844;2023-01-23T09:37:24;101775.28;;;1.63;100.00
53546;BME280;39432;51.902;10.844;2023-01-23T09:39:53;101774.88;;;2.05;100.00
53546;BME280;39432;51.902;10.844;2023-01-23T09:42:30;101777.19;;;2.27;100.00
53546;BME280;39432;51.902;10.844;2023-01-23T09:45:03;101776.78;;;2.50;100.00
53546;BME280;39432;51.902;10.844;2023-01-23T09:47:37;101770.28;;;2.15;100.00
53546;BME280;39432;51.902;10.844;2023-01-23T09:50:13;101776.56;;;2.61;100.00
53546;BME280;39432;51.902;10.844;2023-01-23T09:52:49;101772.00;;;2.16;100.00
53546;BME280;39432;51.902;10.844;2023-01-23T09:55:24;101773.56;;;1.81;100.00
53546;BME280;39432;51.902;10.844;2023-01-23T09:57:58;101775.03;;;2.03;100.00
53546;BME280;39432;51.902;10.844;2023-01-23T10:00:31;101781.31;;;2.31;100.00
53546;BME280;39432;51.902;10.844;2023-01-23T10:03:05;101774.34;;;2.74;100.00
53546;BME280;39432;51.902;10.844;2023-01-23T10:05:48;101774.56;;;2.63;100.00
53546;BME280;39432;51.902;10.844;2023-01-23T10:08:28;101757.47;;;1.33;100.00
53546;BME280;39432;51.902;10.844;2023-01-23T10:11:02;101752.06;;;1.23;100.00
53546;BME280;39432;51.902;10.844;2023-01-23T10:13:51;101752.91;;;1.34;100.00
53546;BME280;39432;51.902;10.844;2023-01-23T10:16:35;101754.19;;;1.39;100.00
53546;BME280;39432;51.902;10.844;2023-01-23T10:19:23;101758.56;;;1.50;100.00
53546;BME280;39432;51.902;10.844;2023-01-23T10:22:06;101763.97;;;1.97;100.00
53546;BME280;39432;51.902;10.844;2023-01-23T10:24:50;101764.56;;;2.18;100.00
53546;BME280;39432;51.902;10.844;2023-01-23T10:27:21;101762.66;;;2.56;100.00
53546;BME280;39432;51.902;10.844;2023-01-23T10:29:55;101750.06;;;2.19;100.00
53546;BME280;39432;51.902;10.844;2023-01-23T10:32:28;101751.81;;;2.83;100.00
53546;BME280;39432;51.902;10.844;2023-01-23T10:35:22;101755.28;;;2.94;100.00
53546;BME280;39432;51.902;10.844;2023-01-23T10:38:00;101749.88;;;2.76;100.00
53546;BME280;39432;51.902;10.844;2023-01-23T10:40:30;101750.63;;;2.68;100.00
53546;BME280;39432;51.902;10.844;2023-01-23T10:43:15;101738.84;;;1.87;100.00
53546;BME280;39432;51.902;10.844;2023-01-23T10:45:46;101730.88;;;1.48;100.00
53546;BME280;39432;51.902;10.844;2023-01-23T10:48:39;101737.88;;;1.31;100.00
53546;BME280;39432;51.902;10.844;2023-01-23T10:51:25;101730.13;;;1.65;100.00
53546;BME280;39432;51.902;10.844;2023-01-23T10:54:08;101735.28;;;1.49;100.00
53546;BME280;39432;51.902;10.844;2023-01-23T10:56:56;101736.66;;;1.72;100.00
53546;BME280;39432;51.902;10.844;2023-01-23T10:59:30;101737.22;;;1.66;100.00
53546;BME280;39432;51.902;10.844;2023-01-23T11:04:49;101737.31;;;1.27;100.00
53546;BME280;39432;51.902;10.844;2023-01-23T11:07:21;101730.66;;;1.02;100.00
53546;BME280;39432;51.902;10.844;2023-01-23T11:09:59;101739.44;;;1.34;100.00
53546;BME280;39432;51.902;10.844;2023-01-23T11:12:31;101748.88;;;1.57;100.00
53546;BME280;39432;51.902;10.844;2023-01-23T11:15:15;101749.03;;;1.65;100.00
53546;BME280;39432;51.902;10.844;2023-01-23T11:17:49;101748.56;;;1.70;100.00
53546;BME280;39432;51.902;10.844;2023-01-23T11:20:24;101744.25;;;1.40;100.00
53546;BME280;39432;51.902;10.844;2023-01-23T11:23:00;101752.53;;;1.75;100.00
53546;BME280;39432;51.902;10.844;2023-01-23T11:25:36;101747.22;;;1.37;100.00
53546;BME280;39432;51.902;10.844;2023-01-23T11:28:19;101757.34;;;1.81;100.00
53546;BME280;39432;51.902;10.844;2023-01-23T11:30:54;101752.38;;;2.14;100.00
53546;BME280;39432;51.902;10.844;2023-01-23T11:33:42;101743.72;;;1.73;100.00
53546;BME280;39432;51.902;10.844;2023-01-23T11:36:34;101730.75;;;1.40;100.00
53546;BME280;39432;51.902;10.844;2023-01-23T11:39:12;101740.03;;;1.74;100.00
53546;BME280;39432;51.902;10.844;2023-01-23T11:41:49;101736.91;;;1.69;100.00
53546;BME280;39432;51.902;10.844;2023-01-23T11:44:20;101737.41;;;1.55;100.00
53546;BME280;39432;51.902;10.844;2023-01-23T11:47:05;101735.00;;;1.42;100.00
53546;BME280;39432;51.902;10.844;2023-01-23T11:49:57;101729.81;;;1.21;100.00
53546;BME280;39432;51.902;10.844;2023-01-23T11:52:43;101742.97;;;1.44;100.00
53546;BME280;39432;51.902;10.844;2023-01-23T11:55:36;101744.66;;;1.54;100.00
53546;BME280;39432;51.902;10.844;2023-01-23T11:58:23;101746.34;;;1.55;100.00
53546;BME280;39432;51.902;10.844;2023-01-23T12:01:05;101745.63;;;1.53;100.00
53546;BME280;39432;51.902;10.844;2023-01-23T12:03:53;101751.72;;;1.65;100.00
53546;BME280;39432;51.902;10.844;2023-01-23T12:06:36;101749.97;;;1.74;100.00
53546;BME280;39432;51.902;10.844;2023-01-23T12:09:10;101745.00;;;1.22;100.00
53546;BME280;39432;51.902;10.844;2023-01-23T12:11:56;101752.63;;;1.37;100.00
53546;BME280;39432;51.902;10.844;2023-01-23T12:14:34;101759.28;;;1.99;100.00
53546;BME280;39432;51.902;10.844;2023-01-23T12:17:16;101747.69;;;1.22;100.00
53546;BME280;39432;51.902;10.844;2023-01-23T12:19:56;101742.88;;;1.16;100.00
53546;BME280;39432;51.902;10.844;2023-01-23T12:22:38;101750.31;;;1.51;100.00
53546;BME280;39432;51.902;10.844;2023-01-23T12:25:21;101756.75;;;1.88;100.00
53546;BME280;39432;51.902;10.844;2023-01-23T12:27:55;101752.84;;;1.63;100.00
53546;BME280;39432;51.902;10.844;2023-01-23T12:30:38;101750.69;;;2.13;100.00
53546;BME280;39432;51.902;10.844;2023-01-23T12:33:30;101740.09;;;1.92;100.00
53546;BME280;39432;51.902;10.844;2023-01-23T12:36:17;101750.03;;;2.01;100.00
53546;BME280;39432;51.902;10.844;2023-01-23T12:38:58;101745.50;;;1.92;100.00
53546;BME280;39432;51.902;10.844;2023-01-23T12:41:33;101747.34;;;1.92;100.00
53546;BME280;39432;51.902;10.844;2023-01-23T12:44:10;101744.97;;;1.89;100.00
53546;BME280;39432;51.902;10.844;2023-01-23T12:46:48;101742.31;;;1.69;100.00
53546;BME280;39432;51.902;10.844;2023-01-23T12:49:24;101734.63;;;2.11;100.00
53546;BME280;39432;51.902;10.844;2023-01-23T12:51:59;101729.25;;;1.74;100.00
53546;BME280;39432;51.902;10.844;2023-01-23T12:54:35;101721.59;;;1.70;100.00
53546;BME280;39432;51.902;10.844;2023-01-23T12:57:06;101731.66;;;2.15;100.00
53546;BME280;39432;51.902;10.844;2023-01-23T12:59:50;101723.72;;;1.76;100.00
53546;BME280;39432;51.902;10.844;2023-01-23T13:02:33;101724.66;;;1.84;100.00
53546;BME280;39432;51.902;10.844;2023-01-23T13:05:16;101724.19;;;1.99;100.00
53546;BME280;39432;51.902;10.844;2023-01-23T13:07:54;101735.97;;;1.98;100.00
53546;BME280;39432;51.902;10.844;2023-01-23T13:10:43;101736.56;;;1.92;100.00
53546;BME280;39432;51.902;10.844;2023-01-23T13:13:30;101730.63;;;1.88;100.00
53546;BME280;39432;51.902;10.844;2023-01-23T13:16:03;101733.66;;;2.03;100.00
53546;BME280;39432;51.902;10.844;2023-01-23T13:18:50;101719.56;;;1.81;100.00
53546;BME280;39432;51.902;10.844;2023-01-23T13:21:33;101725.69;;;2.11;100.00